JAL68 RJAA-KSEA
Flight info
| Callsign | JAL68 |
|---|---|
| Flight time | N/A |
| Altitude | 33000 |
| Route | GULBO Y808 NOLAX Y812 ADNAP OTR5 KALNA KALIG CUTEE/N0502F350 DCT CARTO DCT 50N176E DCT 50E80 DCT 51N70 DCT 52N60 DCT 53N50/N0496F370 DCT 53N40 DCT MANJO DCT 50N29 DCT TOU MARNR8 |
| Aircraft | B77W/H-SDE1E2E3FGHIJ2J3J4J5M1RWXY/LB1D1 |
Departure
| Time | 2026-05-06 02:51 |
|---|---|
| Airport | Narita International Airport (RJAA) |
Arrival
| Time | N/A |
|---|---|
| Airport | Seattle–Tacoma International Airport (KSEA) |
| Time | Latitude | Longitude | Altitude | Speed | Heading |
|---|---|---|---|---|---|
| 2026-05-06 02:18 | 35.76184 | 140.38363 | 149 ft | 0 kts | 60° |
| 2026-05-06 02:40 | 35.76175 | 140.38344 | 149 ft | 3 kts | 60° |
| 2026-05-06 02:41 | 35.76165 | 140.38322 | 149 ft | 3 kts | 60° |
| 2026-05-06 02:41 | 35.76155 | 140.38299 | 149 ft | 3 kts | 60° |
| 2026-05-06 02:41 | 35.76145 | 140.38278 | 149 ft | 2 kts | 33° |
| 2026-05-06 02:41 | 35.76128 | 140.38276 | 149 ft | 3 kts | 332° |
| 2026-05-06 02:42 | 35.76124 | 140.38279 | 149 ft | 0 kts | 331° |
| 2026-05-06 02:42 | 35.76125 | 140.38278 | 149 ft | 2 kts | 331° |
| 2026-05-06 02:43 | 35.76176 | 140.38244 | 149 ft | 10 kts | 331° |
| 2026-05-06 02:43 | 35.76232 | 140.38180 | 148 ft | 17 kts | 298° |
| 2026-05-06 02:43 | 35.76226 | 140.38079 | 148 ft | 12 kts | 240° |
| 2026-05-06 02:43 | 35.76207 | 140.38019 | 148 ft | 9 kts | 268° |
| 2026-05-06 02:44 | 35.76269 | 140.37933 | 148 ft | 15 kts | 329° |
| 2026-05-06 02:44 | 35.76359 | 140.37867 | 148 ft | 15 kts | 331° |
| 2026-05-06 02:44 | 35.76453 | 140.37803 | 148 ft | 15 kts | 331° |
| 2026-05-06 02:44 | 35.76541 | 140.37739 | 148 ft | 15 kts | 329° |
| 2026-05-06 02:45 | 35.76633 | 140.37671 | 148 ft | 15 kts | 329° |
| 2026-05-06 02:45 | 35.76723 | 140.37603 | 148 ft | 15 kts | 328° |
| 2026-05-06 02:45 | 35.76816 | 140.37532 | 148 ft | 15 kts | 330° |
| 2026-05-06 02:45 | 35.76909 | 140.37466 | 148 ft | 15 kts | 330° |
| 2026-05-06 02:46 | 35.77000 | 140.37402 | 148 ft | 15 kts | 330° |
| 2026-05-06 02:46 | 35.77093 | 140.37337 | 148 ft | 13 kts | 329° |
| 2026-05-06 02:46 | 35.77168 | 140.37284 | 148 ft | 12 kts | 329° |
| 2026-05-06 02:46 | 35.77242 | 140.37230 | 148 ft | 12 kts | 329° |
| 2026-05-06 02:47 | 35.77313 | 140.37178 | 148 ft | 12 kts | 329° |
| 2026-05-06 02:47 | 35.77384 | 140.37127 | 148 ft | 12 kts | 329° |
| 2026-05-06 02:47 | 35.77451 | 140.37078 | 148 ft | 11 kts | 329° |
| 2026-05-06 02:47 | 35.77481 | 140.37053 | 148 ft | 4 kts | 318° |
| 2026-05-06 02:48 | 35.77496 | 140.37024 | 148 ft | 4 kts | 291° |
| 2026-05-06 02:48 | 35.77491 | 140.36982 | 148 ft | 6 kts | 251° |
| 2026-05-06 02:48 | 35.77473 | 140.36939 | 148 ft | 6 kts | 240° |
| 2026-05-06 02:48 | 35.77454 | 140.36897 | 148 ft | 6 kts | 240° |
| 2026-05-06 02:49 | 35.77441 | 140.36869 | 148 ft | 2 kts | 238° |
| 2026-05-06 02:49 | 35.77427 | 140.36859 | 148 ft | 3 kts | 199° |
| 2026-05-06 02:49 | 35.77410 | 140.36860 | 148 ft | 3 kts | 169° |
| 2026-05-06 02:49 | 35.77404 | 140.36863 | 148 ft | 0 kts | 158° |
| 2026-05-06 02:50 | 35.77400 | 140.36865 | 148 ft | 1 kts | 155° |
| 2026-05-06 02:50 | 35.77388 | 140.36872 | 148 ft | 8 kts | 154° |
| 2026-05-06 02:50 | 35.77134 | 140.37051 | 147 ft | 77 kts | 149° |
| 2026-05-06 02:50 | 35.76483 | 140.37519 | 150 ft | 137 kts | 150° |
| 2026-05-06 02:51 | 35.75495 | 140.38232 | 152 ft | 184 kts | 150° |
| 2026-05-06 02:51 | 35.74392 | 140.39036 | 683 ft | 178 kts | 150° |
| 2026-05-06 02:51 | 35.73372 | 140.39786 | 1373 ft | 176 kts | 151° |
| 2026-05-06 02:51 | 35.72286 | 140.40552 | 1853 ft | 184 kts | 152° |
| 2026-05-06 02:52 | 35.71101 | 140.41394 | 2072 ft | 206 kts | 152° |
| 2026-05-06 02:52 | 35.69807 | 140.42316 | 2322 ft | 227 kts | 152° |
| 2026-05-06 02:52 | 35.68411 | 140.43321 | 2844 ft | 235 kts | 152° |
| 2026-05-06 02:52 | 35.66991 | 140.44341 | 3541 ft | 238 kts | 152° |
| 2026-05-06 02:53 | 35.65551 | 140.45380 | 4177 ft | 243 kts | 152° |
| 2026-05-06 02:53 | 35.64108 | 140.46422 | 4778 ft | 248 kts | 152° |
| 2026-05-06 02:53 | 35.62604 | 140.47510 | 5385 ft | 254 kts | 152° |
| 2026-05-06 02:53 | 35.61149 | 140.48566 | 6008 ft | 255 kts | 152° |
| 2026-05-06 02:54 | 35.59608 | 140.49687 | 6560 ft | 258 kts | 153° |
| 2026-05-06 02:54 | 35.58101 | 140.50770 | 7075 ft | 263 kts | 152° |
| 2026-05-06 02:54 | 35.56515 | 140.51917 | 7668 ft | 266 kts | 152° |
| 2026-05-06 02:54 | 35.54910 | 140.53072 | 8349 ft | 267 kts | 152° |
| 2026-05-06 02:55 | 35.53294 | 140.54228 | 8936 ft | 271 kts | 152° |
| 2026-05-06 02:55 | 35.51675 | 140.55384 | 9519 ft | 274 kts | 151° |
| 2026-05-06 02:55 | 35.50110 | 140.56505 | 10110 ft | 275 kts | 151° |
| 2026-05-06 02:55 | 35.48461 | 140.57686 | 10754 ft | 277 kts | 151° |
| 2026-05-06 02:56 | 35.46835 | 140.58849 | 11072 ft | 293 kts | 151° |
| 2026-05-06 02:56 | 35.45010 | 140.60154 | 11240 ft | 314 kts | 151° |
| 2026-05-06 02:56 | 35.43098 | 140.61613 | 11377 ft | 333 kts | 143° |
| 2026-05-06 02:56 | 35.41534 | 140.63805 | 11517 ft | 353 kts | 125° |
| 2026-05-06 02:57 | 35.40165 | 140.66388 | 11901 ft | 367 kts | 125° |
| 2026-05-06 02:57 | 35.38741 | 140.69030 | 12544 ft | 375 kts | 126° |
| 2026-05-06 02:57 | 35.37276 | 140.71709 | 13275 ft | 381 kts | 126° |
| 2026-05-06 02:57 | 35.35785 | 140.74415 | 14018 ft | 387 kts | 126° |
| 2026-05-06 02:58 | 35.34261 | 140.77164 | 14738 ft | 393 kts | 127° |
| 2026-05-06 02:58 | 35.32713 | 140.79946 | 15447 ft | 398 kts | 127° |
| 2026-05-06 02:58 | 35.31151 | 140.82764 | 16104 ft | 403 kts | 127° |
| 2026-05-06 02:58 | 35.29548 | 140.85624 | 16748 ft | 410 kts | 128° |
| 2026-05-06 02:59 | 35.27925 | 140.88513 | 17474 ft | 414 kts | 128° |
| 2026-05-06 02:59 | 35.26283 | 140.91436 | 18133 ft | 420 kts | 128° |